sensor_id;sensor_type;location;lat;lon;timestamp;temperature;humidity
7694;DHT22;3889;48.162;11.510;2022-11-04T00:01:26;11.60;99.90
7694;DHT22;3889;48.162;11.510;2022-11-04T00:03:54;11.50;99.90
7694;DHT22;3889;48.162;11.510;2022-11-04T00:06:23;11.50;99.90
7694;DHT22;3889;48.162;11.510;2022-11-04T00:08:54;11.50;99.90
7694;DHT22;3889;48.162;11.510;2022-11-04T00:11:23;11.50;99.90
7694;DHT22;3889;48.162;11.510;2022-11-04T00:14:09;11.50;99.90
7694;DHT22;3889;48.162;11.510;2022-11-04T00:16:37;11.60;99.90
7694;DHT22;3889;48.162;11.510;2022-11-04T00:19:23;11.60;99.90
7694;DHT22;3889;48.162;11.510;2022-11-04T00:21:51;11.60;99.90
7694;DHT22;3889;48.162;11.510;2022-11-04T00:24:39;11.60;99.90
7694;DHT22;3889;48.162;11.510;2022-11-04T00:27:24;11.60;99.90
7694;DHT22;3889;48.162;11.510;2022-11-04T00:30:10;11.50;99.90
7694;DHT22;3889;48.162;11.510;2022-11-04T00:32:38;11.50;99.90
7694;DHT22;3889;48.162;11.510;2022-11-04T00:35:23;11.50;99.90
7694;DHT22;3889;48.162;11.510;2022-11-04T00:37:51;11.50;99.90
7694;DHT22;3889;48.162;11.510;2022-11-04T00:40:20;11.50;99.90
7694;DHT22;3889;48.162;11.510;2022-11-04T00:42:48;11.40;99.90
7694;DHT22;3889;48.162;11.510;2022-11-04T00:45:15;11.40;99.90
7694;DHT22;3889;48.162;11.510;2022-11-04T00:47:43;11.40;99.90
7694;DHT22;3889;48.162;11.510;2022-11-04T00:50:11;11.40;99.90
7694;DHT22;3889;48.162;11.510;2022-11-04T00:52:39;11.40;99.90
7694;DHT22;3889;48.162;11.510;2022-11-04T00:55:07;11.30;99.90
7694;DHT22;3889;48.162;11.510;2022-11-04T00:57:37;11.20;99.90
7694;DHT22;3889;48.162;11.510;2022-11-04T01:00:06;11.20;99.90
7694;DHT22;3889;48.162;11.510;2022-11-04T01:02:34;11.20;99.90
7694;DHT22;3889;48.162;11.510;2022-11-04T01:05:02;11.00;99.90
7694;DHT22;3889;48.162;11.510;2022-11-04T01:07:30;11.00;99.90
7694;DHT22;3889;48.162;11.510;2022-11-04T01:09:58;10.90;99.90
7694;DHT22;3889;48.162;11.510;2022-11-04T01:12:26;10.90;99.90
7694;DHT22;3889;48.162;11.510;2022-11-04T01:14:55;10.90;99.90
7694;DHT22;3889;48.162;11.510;2022-11-04T01:17:23;10.70;99.90
7694;DHT22;3889;48.162;11.510;2022-11-04T01:19:51;10.60;99.90
7694;DHT22;3889;48.162;11.510;2022-11-04T01:22:19;10.50;99.90
7694;DHT22;3889;48.162;11.510;2022-11-04T01:24:47;10.50;99.90
7694;DHT22;3889;48.162;11.510;2022-11-04T01:27:14;10.40;99.90
7694;DHT22;3889;48.162;11.510;2022-11-04T01:29:42;10.20;99.90
7694;DHT22;3889;48.162;11.510;2022-11-04T01:32:11;10.20;99.90
7694;DHT22;3889;48.162;11.510;2022-11-04T01:34:39;10.20;99.90
7694;DHT22;3889;48.162;11.510;2022-11-04T01:37:09;10.10;99.90
7694;DHT22;3889;48.162;11.510;2022-11-04T01:39:37;10.10;99.90
7694;DHT22;3889;48.162;11.510;2022-11-04T01:42:05;10.00;99.90
7694;DHT22;3889;48.162;11.510;2022-11-04T01:44:54;10.10;99.90
7694;DHT22;3889;48.162;11.510;2022-11-04T01:47:27;10.10;99.90
7694;DHT22;3889;48.162;11.510;2022-11-04T01:49:59;10.00;99.90
7694;DHT22;3889;48.162;11.510;2022-11-04T01:52:34;10.00;99.90
7694;DHT22;3889;48.162;11.510;2022-11-04T01:55:09;10.00;99.90
7694;DHT22;3889;48.162;11.510;2022-11-04T01:57:41;10.00;99.90
7694;DHT22;3889;48.162;11.510;2022-11-04T02:00:10;10.00;99.90
7694;DHT22;3889;48.162;11.510;2022-11-04T02:02:48;10.00;99.90
7694;DHT22;3889;48.162;11.510;2022-11-04T02:05:18;9.90;99.90
7694;DHT22;3889;48.162;11.510;2022-11-04T02:07:49;9.90;99.90
7694;DHT22;3889;48.162;11.510;2022-11-04T02:10:21;9.90;99.90
7694;DHT22;3889;48.162;11.510;2022-11-04T02:12:50;9.90;99.90
7694;DHT22;3889;48.162;11.510;2022-11-04T02:15:22;9.90;99.90
7694;DHT22;3889;48.162;11.510;2022-11-04T02:18:09;9.80;99.90
7694;DHT22;3889;48.162;11.510;2022-11-04T02:20:52;9.80;99.90
7694;DHT22;3889;48.162;11.510;2022-11-04T02:29:52;9.80;99.90
7694;DHT22;3889;48.162;11.510;2022-11-04T02:32:33;9.70;99.90
7694;DHT22;3889;48.162;11.510;2022-11-04T02:35:09;9.70;99.90
7694;DHT22;3889;48.162;11.510;2022-11-04T02:37:44;9.70;99.90
7694;DHT22;3889;48.162;11.510;2022-11-04T02:40:21;9.70;99.90
7694;DHT22;3889;48.162;11.510;2022-11-04T02:42:56;9.70;99.90
7694;DHT22;3889;48.162;11.510;2022-11-04T02:45:34;9.70;99.90
7694;DHT22;3889;48.162;11.510;2022-11-04T02:48:06;9.70;99.90
7694;DHT22;3889;48.162;11.510;2022-11-04T02:50:40;9.60;99.90
7694;DHT22;3889;48.162;11.510;2022-11-04T02:53:14;9.60;99.90
7694;DHT22;3889;48.162;11.510;2022-11-04T02:55:45;9.60;99.90
7694;DHT22;3889;48.162;11.510;2022-11-04T02:58:17;9.60;99.90
7694;DHT22;3889;48.162;11.510;2022-11-04T03:00:48;9.60;99.90
7694;DHT22;3889;48.162;11.510;2022-11-04T03:03:20;9.60;99.90
7694;DHT22;3889;48.162;11.510;2022-11-04T03:05:52;9.70;99.90
7694;DHT22;3889;48.162;11.510;2022-11-04T03:08:24;9.70;99.90
7694;DHT22;3889;48.162;11.510;2022-11-04T03:10:58;9.70;99.90
7694;DHT22;3889;48.162;11.510;2022-11-04T03:13:32;9.70;99.90
7694;DHT22;3889;48.162;11.510;2022-11-04T03:16:08;9.60;99.90
7694;DHT22;3889;48.162;11.510;2022-11-04T03:18:42;9.60;99.90
7694;DHT22;3889;48.162;11.510;2022-11-04T03:21:12;9.60;99.90
7694;DHT22;3889;48.162;11.510;2022-11-04T03:23:42;9.60;99.90
7694;DHT22;3889;48.162;11.510;2022-11-04T03:26:13;9.60;99.90
7694;DHT22;3889;48.162;11.510;2022-11-04T03:28:49;9.60;99.90
7694;DHT22;3889;48.162;11.510;2022-11-04T03:31:22;9.60;99.90
7694;DHT22;3889;48.162;11.510;2022-11-04T03:33:53;9.60;99.90
7694;DHT22;3889;48.162;11.510;2022-11-04T03:36:22;9.60;99.90
7694;DHT22;3889;48.162;11.510;2022-11-04T03:38:50;9.60;99.90
7694;DHT22;3889;48.162;11.510;2022-11-04T03:41:24;9.60;99.90
7694;DHT22;3889;48.162;11.510;2022-11-04T03:43:54;9.60;99.90
7694;DHT22;3889;48.162;11.510;2022-11-04T03:46:23;9.50;99.90
7694;DHT22;3889;48.162;11.510;2022-11-04T03:48:52;9.50;99.90
7694;DHT22;3889;48.162;11.510;2022-11-04T03:51:20;9.50;99.90
7694;DHT22;3889;48.162;11.510;2022-11-04T03:53:48;9.50;99.90
7694;DHT22;3889;48.162;11.510;2022-11-04T03:56:30;9.50;99.90
7694;DHT22;3889;48.162;11.510;2022-11-04T03:59:16;9.50;99.90
7694;DHT22;3889;48.162;11.510;2022-11-04T04:01:54;9.50;99.90
7694;DHT22;3889;48.162;11.510;2022-11-04T04:04:27;9.50;99.90
7694;DHT22;3889;48.162;11.510;2022-11-04T04:07:00;9.50;99.90
7694;DHT22;3889;48.162;11.510;2022-11-04T04:09:36;9.50;99.90
7694;DHT22;3889;48.162;11.510;2022-11-04T04:12:10;9.40;99.90
7694;DHT22;3889;48.162;11.510;2022-11-04T04:14:42;9.40;99.90
7694;DHT22;3889;48.162;11.510;2022-11-04T04:17:17;9.50;99.90
7694;DHT22;3889;48.162;11.510;2022-11-04T04:19:51;9.40;99.90
7694;DHT22;3889;48.162;11.510;2022-11-04T04:22:22;9.40;99.90
7694;DHT22;3889;48.162;11.510;2022-11-04T04:24:52;9.50;99.90
7694;DHT22;3889;48.162;11.510;2022-11-04T04:27:40;9.50;99.90
7694;DHT22;3889;48.162;11.510;2022-11-04T04:30:11;9.50;99.90
7694;DHT22;3889;48.162;11.510;2022-11-04T04:32:50;9.50;99.90
7694;DHT22;3889;48.162;11.510;2022-11-04T04:35:25;9.50;99.90
7694;DHT22;3889;48.162;11.510;2022-11-04T04:38:18;9.50;99.90
7694;DHT22;3889;48.162;11.510;2022-11-04T04:41:10;9.50;99.90
7694;DHT22;3889;48.162;11.510;2022-11-04T04:43:58;9.50;99.90
7694;DHT22;3889;48.162;11.510;2022-11-04T04:46:44;9.50;99.90
7694;DHT22;3889;48.162;11.510;2022-11-04T04:49:15;9.50;99.90
7694;DHT22;3889;48.162;11.510;2022-11-04T04:51:44;9.50;99.90
7694;DHT22;3889;48.162;11.510;2022-11-04T04:54:13;9.50;99.90
7694;DHT22;3889;48.162;11.510;2022-11-04T04:56:41;9.60;99.90
7694;DHT22;3889;48.162;11.510;2022-11-04T04:59:09;9.60;99.90
7694;DHT22;3889;48.162;11.510;2022-11-04T05:01:37;9.60;99.90
7694;DHT22;3889;48.162;11.510;2022-11-04T05:04:05;9.60;99.90
7694;DHT22;3889;48.162;11.510;2022-11-04T05:06:34;9.60;99.90
7694;DHT22;3889;48.162;11.510;2022-11-04T05:09:02;9.60;99.90
7694;DHT22;3889;48.162;11.510;2022-11-04T05:11:30;9.50;99.90
7694;DHT22;3889;48.162;11.510;2022-11-04T05:13:58;9.50;99.90
7694;DHT22;3889;48.162;11.510;2022-11-04T05:16:25;9.40;99.90
7694;DHT22;3889;48.162;11.510;2022-11-04T05:18:53;9.40;99.90
7694;DHT22;3889;48.162;11.510;2022-11-04T05:21:21;9.40;99.90
7694;DHT22;3889;48.162;11.510;2022-11-04T05:23:50;9.40;99.90
7694;DHT22;3889;48.162;11.510;2022-11-04T05:26:18;9.50;99.90
7694;DHT22;3889;48.162;11.510;2022-11-04T05:28:46;9.40;99.90
7694;DHT22;3889;48.162;11.510;2022-11-04T05:31:14;9.40;99.90
7694;DHT22;3889;48.162;11.510;2022-11-04T05:33:42;9.40;99.90
7694;DHT22;3889;48.162;11.510;2022-11-04T05:36:11;9.40;99.90
7694;DHT22;3889;48.162;11.510;2022-11-04T05:38:40;9.50;99.90
7694;DHT22;3889;48.162;11.510;2022-11-04T05:41:10;9.40;99.90
7694;DHT22;3889;48.162;11.510;2022-11-04T05:43:51;9.40;99.90
7694;DHT22;3889;48.162;11.510;2022-11-04T05:46:19;9.40;99.90
7694;DHT22;3889;48.162;11.510;2022-11-04T05:48:47;9.40;99.90
7694;DHT22;3889;48.162;11.510;2022-11-04T05:51:16;9.50;99.90
7694;DHT22;3889;48.162;11.510;2022-11-04T05:53:44;9.40;99.90
7694;DHT22;3889;48.162;11.510;2022-11-04T05:56:13;9.50;99.90
7694;DHT22;3889;48.162;11.510;2022-11-04T05:58:41;9.30;99.90
7694;DHT22;3889;48.162;11.510;2022-11-04T06:01:21;9.40;99.90
7694;DHT22;3889;48.162;11.510;2022-11-04T06:03:49;9.30;99.90
7694;DHT22;3889;48.162;11.510;2022-11-04T06:06:17;9.30;99.90
7694;DHT22;3889;48.162;11.510;2022-11-04T06:08:45;9.00;99.90
7694;DHT22;3889;48.162;11.510;2022-11-04T06:11:14;9.00;99.90
7694;DHT22;3889;48.162;11.510;2022-11-04T06:13:42;8.90;99.90
7694;DHT22;3889;48.162;11.510;2022-11-04T06:16:09;8.80;99.90
7694;DHT22;3889;48.162;11.510;2022-11-04T06:18:37;8.80;99.90
7694;DHT22;3889;48.162;11.510;2022-11-04T06:21:07;8.80;99.90
7694;DHT22;3889;48.162;11.510;2022-11-04T06:23:35;8.80;99.90
7694;DHT22;3889;48.162;11.510;2022-11-04T06:26:03;8.70;99.90
7694;DHT22;3889;48.162;11.510;2022-11-04T06:28:33;8.80;99.90
7694;DHT22;3889;48.162;11.510;2022-11-04T06:31:03;8.70;99.90
7694;DHT22;3889;48.162;11.510;2022-11-04T06:33:31;8.80;99.90
7694;DHT22;3889;48.162;11.510;2022-11-04T06:36:04;8.70;99.90
7694;DHT22;3889;48.162;11.510;2022-11-04T06:38:34;8.70;99.90
7694;DHT22;3889;48.162;11.510;2022-11-04T06:41:03;8.60;99.90
7694;DHT22;3889;48.162;11.510;2022-11-04T06:43:37;8.70;99.90
7694;DHT22;3889;48.162;11.510;2022-11-04T06:46:05;8.70;99.90
7694;DHT22;3889;48.162;11.510;2022-11-04T06:48:33;8.70;99.90
7694;DHT22;3889;48.162;11.510;2022-11-04T06:51:00;8.70;99.90
7694;DHT22;3889;48.162;11.510;2022-11-04T06:53:28;8.60;99.90
7694;DHT22;3889;48.162;11.510;2022-11-04T06:56:01;8.60;99.90
7694;DHT22;3889;48.162;11.510;2022-11-04T06:58:29;8.60;99.90
7694;DHT22;3889;48.162;11.510;2022-11-04T07:00:58;8.50;99.90
7694;DHT22;3889;48.162;11.510;2022-11-04T07:03:26;8.50;99.90
7694;DHT22;3889;48.162;11.510;2022-11-04T07:05:55;8.60;99.90
7694;DHT22;3889;48.162;11.510;2022-11-04T07:08:23;8.60;99.90
7694;DHT22;3889;48.162;11.510;2022-11-04T07:10:53;8.60;99.90
7694;DHT22;3889;48.162;11.510;2022-11-04T07:13:21;8.60;99.90
7694;DHT22;3889;48.162;11.510;2022-11-04T07:15:49;8.60;99.90
7694;DHT22;3889;48.162;11.510;2022-11-04T07:18:18;8.50;99.90
7694;DHT22;3889;48.162;11.510;2022-11-04T07:20:46;8.60;99.90
7694;DHT22;3889;48.162;11.510;2022-11-04T07:23:14;8.60;99.90
7694;DHT22;3889;48.162;11.510;2022-11-04T07:25:42;8.60;99.90
7694;DHT22;3889;48.162;11.510;2022-11-04T07:28:10;8.60;99.90
7694;DHT22;3889;48.162;11.510;2022-11-04T07:30:39;8.60;99.90
7694;DHT22;3889;48.162;11.510;2022-11-04T07:33:07;8.60;99.90
7694;DHT22;3889;48.162;11.510;2022-11-04T07:35:36;8.60;99.90
7694;DHT22;3889;48.162;11.510;2022-11-04T07:38:04;8.60;99.90
7694;DHT22;3889;48.162;11.510;2022-11-04T07:40:32;8.60;99.90
7694;DHT22;3889;48.162;11.510;2022-11-04T07:43:00;8.60;99.90
7694;DHT22;3889;48.162;11.510;2022-11-04T07:45:28;8.50;99.90
7694;DHT22;3889;48.162;11.510;2022-11-04T07:47:57;8.50;99.90
7694;DHT22;3889;48.162;11.510;2022-11-04T07:50:25;8.50;99.90
7694;DHT22;3889;48.162;11.510;2022-11-04T07:52:54;8.50;99.90
7694;DHT22;3889;48.162;11.510;2022-11-04T07:55:22;8.60;99.90
7694;DHT22;3889;48.162;11.510;2022-11-04T07:57:50;8.60;99.90
7694;DHT22;3889;48.162;11.510;2022-11-04T08:00:18;8.60;99.90
7694;DHT22;3889;48.162;11.510;2022-11-04T08:02:46;8.70;99.90
7694;DHT22;3889;48.162;11.510;2022-11-04T08:05:14;8.60;99.90
7694;DHT22;3889;48.162;11.510;2022-11-04T08:07:42;8.50;99.90
7694;DHT22;3889;48.162;11.510;2022-11-04T08:10:11;8.50;99.90
7694;DHT22;3889;48.162;11.510;2022-11-04T08:12:39;8.60;99.90
7694;DHT22;3889;48.162;11.510;2022-11-04T08:15:08;8.60;99.90
7694;DHT22;3889;48.162;11.510;2022-11-04T08:17:36;8.50;99.90
7694;DHT22;3889;48.162;11.510;2022-11-04T08:20:04;8.60;99.90
7694;DHT22;3889;48.162;11.510;2022-11-04T08:22:33;8.60;99.90
7694;DHT22;3889;48.162;11.510;2022-11-04T08:25:01;8.60;99.90
7694;DHT22;3889;48.162;11.510;2022-11-04T08:27:31;8.60;99.90
7694;DHT22;3889;48.162;11.510;2022-11-04T08:29:59;8.60;99.90
7694;DHT22;3889;48.162;11.510;2022-11-04T08:32:27;8.50;99.90
7694;DHT22;3889;48.162;11.510;2022-11-04T08:34:55;8.60;99.90
7694;DHT22;3889;48.162;11.510;2022-11-04T08:37:22;8.70;99.90
7694;DHT22;3889;48.162;11.510;2022-11-04T08:39:50;8.70;99.90
7694;DHT22;3889;48.162;11.510;2022-11-04T08:42:18;8.70;99.90
7694;DHT22;3889;48.162;11.510;2022-11-04T08:44:49;8.80;99.90
7694;DHT22;3889;48.162;11.510;2022-11-04T08:47:17;8.80;99.90
7694;DHT22;3889;48.162;11.510;2022-11-04T08:49:45;8.80;99.90
7694;DHT22;3889;48.162;11.510;2022-11-04T08:52:13;8.80;99.90
7694;DHT22;3889;48.162;11.510;2022-11-04T08:54:41;8.80;99.90
7694;DHT22;3889;48.162;11.510;2022-11-04T08:57:10;8.90;99.90
7694;DHT22;3889;48.162;11.510;2022-11-04T08:59:38;8.80;99.90
7694;DHT22;3889;48.162;11.510;2022-11-04T09:02:11;8.80;99.90
7694;DHT22;3889;48.162;11.510;2022-11-04T09:04:40;8.90;99.90
7694;DHT22;3889;48.162;11.510;2022-11-04T09:07:08;8.90;99.90
7694;DHT22;3889;48.162;11.510;2022-11-04T09:09:36;9.00;99.90
7694;DHT22;3889;48.162;11.510;2022-11-04T09:12:08;8.90;99.90
7694;DHT22;3889;48.162;11.510;2022-11-04T09:14:36;8.90;99.90
7694;DHT22;3889;48.162;11.510;2022-11-04T09:17:04;9.00;99.90
7694;DHT22;3889;48.162;11.510;2022-11-04T09:19:33;9.00;99.90
7694;DHT22;3889;48.162;11.510;2022-11-04T09:22:01;9.00;99.90
7694;DHT22;3889;48.162;11.510;2022-11-04T09:24:29;9.00;99.90
7694;DHT22;3889;48.162;11.510;2022-11-04T09:26:57;8.90;99.90
7694;DHT22;3889;48.162;11.510;2022-11-04T09:29:25;8.80;99.90
7694;DHT22;3889;48.162;11.510;2022-11-04T09:31:53;8.90;99.90
7694;DHT22;3889;48.162;11.510;2022-11-04T09:34:21;9.00;99.90
7694;DHT22;3889;48.162;11.510;2022-11-04T09:36:53;8.90;99.90
7694;DHT22;3889;48.162;11.510;2022-11-04T09:39:21;9.00;99.90
7694;DHT22;3889;48.162;11.510;2022-11-04T09:41:56;9.00;99.90
7694;DHT22;3889;48.162;11.510;2022-11-04T09:44:28;9.00;99.90
7694;DHT22;3889;48.162;11.510;2022-11-04T09:47:20;8.90;99.90
7694;DHT22;3889;48.162;11.510;2022-11-04T09:49:51;8.90;99.90
7694;DHT22;3889;48.162;11.510;2022-11-04T09:52:24;8.70;99.90
7694;DHT22;3889;48.162;11.510;2022-11-04T09:54:55;8.60;99.90
7694;DHT22;3889;48.162;11.510;2022-11-04T09:57:25;8.60;99.90
7694;DHT22;3889;48.162;11.510;2022-11-04T09:59:53;8.60;99.90
7694;DHT22;3889;48.162;11.510;2022-11-04T10:02:33;8.50;99.90
7694;DHT22;3889;48.162;11.510;2022-11-04T10:05:13;8.60;99.90
7694;DHT22;3889;48.162;11.510;2022-11-04T10:08:01;8.50;99.90
7694;DHT22;3889;48.162;11.510;2022-11-04T10:10:38;8.50;99.90
7694;DHT22;3889;48.162;11.510;2022-11-04T10:13:17;8.60;99.90
7694;DHT22;3889;48.162;11.510;2022-11-04T10:16:08;8.60;99.90
7694;DHT22;3889;48.162;11.510;2022-11-04T10:18:49;8.70;99.90
7694;DHT22;3889;48.162;11.510;2022-11-04T10:21:25;8.70;99.90
7694;DHT22;3889;48.162;11.510;2022-11-04T10:24:06;8.80;99.90
7694;DHT22;3889;48.162;11.510;2022-11-04T10:26:40;8.90;99.90
7694;DHT22;3889;48.162;11.510;2022-11-04T10:29:12;9.00;99.90
7694;DHT22;3889;48.162;11.510;2022-11-04T10:31:42;9.00;99.90
7694;DHT22;3889;48.162;11.510;2022-11-04T10:34:16;9.00;99.90
7694;DHT22;3889;48.162;11.510;2022-11-04T10:36:48;9.00;99.90
7694;DHT22;3889;48.162;11.510;2022-11-04T10:39:24;9.00;99.90
7694;DHT22;3889;48.162;11.510;2022-11-04T10:41:53;9.00;99.90
7694;DHT22;3889;48.162;11.510;2022-11-04T10:44:25;9.00;99.90
7694;DHT22;3889;48.162;11.510;2022-11-04T10:47:01;9.00;99.90
7694;DHT22;3889;48.162;11.510;2022-11-04T10:49:41;9.00;99.90
7694;DHT22;3889;48.162;11.510;2022-11-04T10:52:32;9.10;99.90
7694;DHT22;3889;48.162;11.510;2022-11-04T10:55:12;9.10;99.90
7694;DHT22;3889;48.162;11.510;2022-11-04T10:57:41;9.20;99.90
7694;DHT22;3889;48.162;11.510;2022-11-04T11:00:35;9.30;99.90
7694;DHT22;3889;48.162;11.510;2022-11-04T11:03:25;9.30;99.90
7694;DHT22;3889;48.162;11.510;2022-11-04T11:06:09;9.20;99.90
7694;DHT22;3889;48.162;11.510;2022-11-04T11:21:48;9.30;99.90
7694;DHT22;3889;48.162;11.510;2022-11-04T11:24:20;9.30;99.90
7694;DHT22;3889;48.162;11.510;2022-11-04T11:26:49;9.40;99.90
7694;DHT22;3889;48.162;11.510;2022-11-04T11:29:21;9.30;99.90
7694;DHT22;3889;48.162;11.510;2022-11-04T11:31:50;9.30;99.90
7694;DHT22;3889;48.162;11.510;2022-11-04T11:34:23;9.40;99.90
7694;DHT22;3889;48.162;11.510;2022-11-04T11:36:55;9.40;99.90
7694;DHT22;3889;48.162;11.510;2022-11-04T11:39:25;9.50;99.90
7694;DHT22;3889;48.162;11.510;2022-11-04T11:41:57;9.50;99.90
7694;DHT22;3889;48.162;11.510;2022-11-04T11:44:28;9.40;99.90
7694;DHT22;3889;48.162;11.510;2022-11-04T11:46:59;9.40;99.90
7694;DHT22;3889;48.162;11.510;2022-11-04T11:49:30;9.30;99.90
7694;DHT22;3889;48.162;11.510;2022-11-04T11:52:29;9.20;99.90
7694;DHT22;3889;48.162;11.510;2022-11-04T11:55:04;9.20;99.90
7694;DHT22;3889;48.162;11.510;2022-11-04T11:57:43;9.10;99.90
7694;DHT22;3889;48.162;11.510;2022-11-04T12:00:35;9.00;99.90
7694;DHT22;3889;48.162;11.510;2022-11-04T12:03:13;9.00;99.90
7694;DHT22;3889;48.162;11.510;2022-11-04T12:05:51;9.10;99.90
7694;DHT22;3889;48.162;11.510;2022-11-04T12:08:55;9.10;99.90
7694;DHT22;3889;48.162;11.510;2022-11-04T12:11:51;9.20;99.90
7694;DHT22;3889;48.162;11.510;2022-11-04T12:14:27;9.10;99.90
7694;DHT22;3889;48.162;11.510;2022-11-04T12:17:04;9.10;99.90
7694;DHT22;3889;48.162;11.510;2022-11-04T12:19:51;9.10;99.90
7694;DHT22;3889;48.162;11.510;2022-11-04T12:22:31;9.10;99.90
7694;DHT22;3889;48.162;11.510;2022-11-04T12:25:07;9.20;99.90
7694;DHT22;3889;48.162;11.510;2022-11-04T12:27:42;9.20;99.90
7694;DHT22;3889;48.162;11.510;2022-11-04T12:30:14;9.20;99.90
7694;DHT22;3889;48.162;11.510;2022-11-04T12:33:00;9.20;99.90
7694;DHT22;3889;48.162;11.510;2022-11-04T12:35:39;9.20;99.90
7694;DHT22;3889;48.162;11.510;2022-11-04T12:38:20;9.10;99.90
7694;DHT22;3889;48.162;11.510;2022-11-04T12:40:59;9.10;99.90
7694;DHT22;3889;48.162;11.510;2022-11-04T12:43:56;9.10;99.90
7694;DHT22;3889;48.162;11.510;2022-11-04T12:46:34;9.10;99.90
7694;DHT22;3889;48.162;11.510;2022-11-04T12:49:26;9.20;99.90
7694;DHT22;3889;48.162;11.510;2022-11-04T12:52:06;9.20;99.90
7694;DHT22;3889;48.162;11.510;2022-11-04T12:54:46;9.10;99.90
7694;DHT22;3889;48.162;11.510;2022-11-04T12:57:24;9.10;99.90
7694;DHT22;3889;48.162;11.510;2022-11-04T13:00:07;9.10;99.90
7694;DHT22;3889;48.162;11.510;2022-11-04T13:02:39;9.00;99.90
7694;DHT22;3889;48.162;11.510;2022-11-04T13:05:22;9.00;99.90
7694;DHT22;3889;48.162;11.510;2022-11-04T13:07:55;8.90;99.90
7694;DHT22;3889;48.162;11.510;2022-11-04T13:10:27;8.80;99.90
7694;DHT22;3889;48.162;11.510;2022-11-04T13:13:01;8.70;99.90
7694;DHT22;3889;48.162;11.510;2022-11-04T13:15:34;8.60;99.90
7694;DHT22;3889;48.162;11.510;2022-11-04T13:18:05;8.60;99.90
7694;DHT22;3889;48.162;11.510;2022-11-04T13:20:39;8.70;99.90
7694;DHT22;3889;48.162;11.510;2022-11-04T13:23:15;8.60;99.90
7694;DHT22;3889;48.162;11.510;2022-11-04T13:25:45;8.60;99.90
7694;DHT22;3889;48.162;11.510;2022-11-04T13:28:18;8.60;99.90
7694;DHT22;3889;48.162;11.510;2022-11-04T13:30:54;8.60;99.90
7694;DHT22;3889;48.162;11.510;2022-11-04T13:33:31;8.60;99.90
7694;DHT22;3889;48.162;11.510;2022-11-04T13:36:06;8.60;99.90
7694;DHT22;3889;48.162;11.510;2022-11-04T13:38:40;8.60;99.90
7694;DHT22;3889;48.162;11.510;2022-11-04T13:44:14;8.70;99.90
7694;DHT22;3889;48.162;11.510;2022-11-04T13:46:47;8.70;99.90
7694;DHT22;3889;48.162;11.510;2022-11-04T13:49:20;8.60;99.90
7694;DHT22;3889;48.162;11.510;2022-11-04T13:52:05;8.70;99.90
7694;DHT22;3889;48.162;11.510;2022-11-04T13:54:37;8.80;99.90
7694;DHT22;3889;48.162;11.510;2022-11-04T13:57:10;8.80;99.90
7694;DHT22;3889;48.162;11.510;2022-11-04T13:59:41;8.70;99.90
7694;DHT22;3889;48.162;11.510;2022-11-04T14:02:24;8.80;99.90
7694;DHT22;3889;48.162;11.510;2022-11-04T14:04:53;8.80;99.90
7694;DHT22;3889;48.162;11.510;2022-11-04T14:10:37;8.90;99.90
7694;DHT22;3889;48.162;11.510;2022-11-04T14:13:42;8.90;99.90
7694;DHT22;3889;48.162;11.510;2022-11-04T14:16:40;8.80;99.90
7694;DHT22;3889;48.162;11.510;2022-11-04T14:22:47;8.90;99.90
7694;DHT22;3889;48.162;11.510;2022-11-04T14:25:28;8.90;99.90
7694;DHT22;3889;48.162;11.510;2022-11-04T14:27:57;8.90;99.90
7694;DHT22;3889;48.162;11.510;2022-11-04T14:30:33;8.80;99.90
7694;DHT22;3889;48.162;11.510;2022-11-04T14:33:05;8.90;99.90
7694;DHT22;3889;48.162;11.510;2022-11-04T14:35:34;8.90;99.90
7694;DHT22;3889;48.162;11.510;2022-11-04T14:38:15;8.90;99.90
7694;DHT22;3889;48.162;11.510;2022-11-04T14:40:49;8.90;99.90
7694;DHT22;3889;48.162;11.510;2022-11-04T14:43:27;8.90;99.90
7694;DHT22;3889;48.162;11.510;2022-11-04T14:45:57;8.90;99.90
7694;DHT22;3889;48.162;11.510;2022-11-04T14:48:28;8.80;99.90
7694;DHT22;3889;48.162;11.510;2022-11-04T14:50:57;8.90;99.90
7694;DHT22;3889;48.162;11.510;2022-11-04T14:53:30;8.80;99.90
7694;DHT22;3889;48.162;11.510;2022-11-04T14:56:03;8.80;99.90
7694;DHT22;3889;48.162;11.510;2022-11-04T14:58:32;8.70;99.90
7694;DHT22;3889;48.162;11.510;2022-11-04T15:01:00;8.80;99.90
7694;DHT22;3889;48.162;11.510;2022-11-04T15:03:34;8.80;99.90
7694;DHT22;3889;48.162;11.510;2022-11-04T15:06:24;8.70;99.90
7694;DHT22;3889;48.162;11.510;2022-11-04T15:09:19;8.60;99.90
7694;DHT22;3889;48.162;11.510;2022-11-04T15:11:47;8.60;99.90
7694;DHT22;3889;48.162;11.510;2022-11-04T15:14:35;8.50;99.90
7694;DHT22;3889;48.162;11.510;2022-11-04T15:17:03;8.40;99.90
7694;DHT22;3889;48.162;11.510;2022-11-04T15:19:34;8.40;99.90
7694;DHT22;3889;48.162;11.510;2022-11-04T15:22:04;8.40;99.90
7694;DHT22;3889;48.162;11.510;2022-11-04T15:24:33;8.40;99.90
7694;DHT22;3889;48.162;11.510;2022-11-04T15:27:03;8.30;99.90
7694;DHT22;3889;48.162;11.510;2022-11-04T15:29:32;8.30;99.90
7694;DHT22;3889;48.162;11.510;2022-11-04T15:32:01;8.20;99.90
7694;DHT22;3889;48.162;11.510;2022-11-04T15:34:34;8.20;99.90
7694;DHT22;3889;48.162;11.510;2022-11-04T15:37:04;8.20;99.90
7694;DHT22;3889;48.162;11.510;2022-11-04T15:39:36;8.10;99.90
7694;DHT22;3889;48.162;11.510;2022-11-04T15:42:06;8.10;99.90
7694;DHT22;3889;48.162;11.510;2022-11-04T15:44:55;8.00;99.90
7694;DHT22;3889;48.162;11.510;2022-11-04T15:47:24;8.00;99.90
7694;DHT22;3889;48.162;11.510;2022-11-04T15:50:02;8.00;99.90
7694;DHT22;3889;48.162;11.510;2022-11-04T15:52:31;8.00;99.90
7694;DHT22;3889;48.162;11.510;2022-11-04T15:54:59;7.90;99.90
7694;DHT22;3889;48.162;11.510;2022-11-04T15:57:31;7.90;99.90
7694;DHT22;3889;48.162;11.510;2022-11-04T16:00:02;7.90;99.90
7694;DHT22;3889;48.162;11.510;2022-11-04T16:02:32;7.90;99.90
7694;DHT22;3889;48.162;11.510;2022-11-04T16:05:06;7.90;99.90
7694;DHT22;3889;48.162;11.510;2022-11-04T16:07:36;7.80;99.90
7694;DHT22;3889;48.162;11.510;2022-11-04T16:10:23;7.80;99.90
7694;DHT22;3889;48.162;11.510;2022-11-04T16:12:55;7.80;99.90
7694;DHT22;3889;48.162;11.510;2022-11-04T16:15:34;7.80;99.90
7694;DHT22;3889;48.162;11.510;2022-11-04T16:18:04;7.70;99.90
7694;DHT22;3889;48.162;11.510;2022-11-04T16:20:34;7.60;99.90
7694;DHT22;3889;48.162;11.510;2022-11-04T16:23:02;7.50;99.90
7694;DHT22;3889;48.162;11.510;2022-11-04T16:25:33;7.50;99.90
7694;DHT22;3889;48.162;11.510;2022-11-04T16:28:02;7.40;99.90
7694;DHT22;3889;48.162;11.510;2022-11-04T16:30:30;7.30;99.90
7694;DHT22;3889;48.162;11.510;2022-11-04T16:33:07;7.20;99.90
7694;DHT22;3889;48.162;11.510;2022-11-04T16:35:39;7.10;99.90
7694;DHT22;3889;48.162;11.510;2022-11-04T16:38:08;7.10;99.90
7694;DHT22;3889;48.162;11.510;2022-11-04T16:40:36;7.00;99.90
7694;DHT22;3889;48.162;11.510;2022-11-04T16:43:04;6.90;99.90
7694;DHT22;3889;48.162;11.510;2022-11-04T16:45:33;6.90;99.90
7694;DHT22;3889;48.162;11.510;2022-11-04T16:48:03;6.80;99.90
7694;DHT22;3889;48.162;11.510;2022-11-04T16:50:31;6.80;99.90
7694;DHT22;3889;48.162;11.510;2022-11-04T16:53:01;6.80;99.90
7694;DHT22;3889;48.162;11.510;2022-11-04T16:55:30;6.70;99.90
7694;DHT22;3889;48.162;11.510;2022-11-04T16:58:01;6.60;99.90
7694;DHT22;3889;48.162;11.510;2022-11-04T17:00:29;6.60;99.90
7694;DHT22;3889;48.162;11.510;2022-11-04T17:02:58;6.50;99.90
7694;DHT22;3889;48.162;11.510;2022-11-04T17:05:26;6.50;99.90